createdAt,value
2024-03-05T00:01:23.078Z,3.91
2024-03-05T00:06:26.674Z,3.90
2024-03-05T00:11:29.946Z,3.88
2024-03-05T00:16:33.419Z,3.87
2024-03-05T00:21:36.711Z,3.84
2024-03-05T00:26:40.136Z,3.81
2024-03-05T00:31:43.466Z,3.79
2024-03-05T00:36:46.955Z,3.77
2024-03-05T00:41:50.155Z,3.74
2024-03-05T00:46:54.368Z,3.68
2024-03-05T00:51:57.598Z,3.62
2024-03-05T00:57:00.710Z,3.54
2024-03-05T01:02:04.099Z,3.47
2024-03-05T01:07:07.623Z,3.39
2024-03-05T01:12:11.039Z,3.24
2024-03-05T01:17:16.223Z,3.10
2024-03-05T01:22:19.343Z,2.96
2024-03-05T01:27:23.224Z,2.84
2024-03-05T01:32:26.564Z,2.76
2024-03-05T01:37:29.681Z,2.69
2024-03-05T01:42:33.570Z,2.63
2024-03-05T01:47:38.422Z,2.60
2024-03-05T01:52:42.395Z,2.57
2024-03-05T01:57:48.447Z,2.55
2024-03-05T02:02:52.044Z,2.56
2024-03-05T02:07:55.561Z,2.57
2024-03-05T02:12:58.769Z,2.59
2024-03-05T02:18:02.223Z,2.61
2024-03-05T02:23:05.488Z,2.63
2024-03-05T02:28:09.918Z,2.68
2024-03-05T02:33:14.711Z,2.72
2024-03-05T02:38:17.870Z,2.75
2024-03-05T02:43:22.454Z,2.77
2024-03-05T02:48:25.720Z,2.78
2024-03-05T02:53:29.031Z,2.80
2024-03-05T02:58:32.503Z,2.81
2024-03-05T03:03:36.432Z,2.81
2024-03-05T03:08:39.678Z,2.81
2024-03-05T03:13:43.084Z,2.81
2024-03-05T03:18:46.259Z,2.79
2024-03-05T03:23:50.127Z,2.76
2024-03-05T03:28:54.105Z,2.75
2024-03-05T03:33:57.453Z,2.75
2024-03-05T03:39:00.487Z,2.76
2024-03-05T03:44:03.668Z,2.78
2024-03-05T03:49:07.089Z,2.80
2024-03-05T03:54:10.201Z,2.83
2024-03-05T03:59:14.618Z,2.86
2024-03-05T04:04:17.863Z,2.90
2024-03-05T04:09:21.253Z,2.92
2024-03-05T04:14:24.395Z,2.95
2024-03-05T04:19:27.683Z,2.98
2024-03-05T04:24:32.534Z,2.98
2024-03-05T04:29:35.823Z,3.00
2024-03-05T04:34:43.983Z,3.01
2024-03-05T04:39:47.963Z,3.02
2024-03-05T04:44:51.287Z,3.04
2024-03-05T04:49:54.894Z,3.05
2024-03-05T04:54:58.616Z,3.06
2024-03-05T05:00:01.721Z,3.06
2024-03-05T05:05:05.484Z,3.06
2024-03-05T05:10:09.369Z,3.08
2024-03-05T05:15:13.911Z,3.10
2024-03-05T05:20:17.358Z,3.12
2024-03-05T05:25:25.298Z,3.13
2024-03-05T05:30:28.666Z,3.15
2024-03-05T05:35:31.865Z,3.17
2024-03-05T05:40:35.496Z,3.18
2024-03-05T05:45:39.411Z,3.20
2024-03-05T05:50:43.832Z,3.23
2024-03-05T05:55:47.262Z,3.26
2024-03-05T06:00:52.217Z,3.29
2024-03-05T06:05:55.426Z,3.33
2024-03-05T06:10:58.548Z,3.36
2024-03-05T06:16:01.846Z,3.38
2024-03-05T06:21:06.688Z,3.42
2024-03-05T06:26:09.725Z,3.46
2024-03-05T06:31:13.110Z,3.47
2024-03-05T06:36:16.520Z,3.51
2024-03-05T06:41:20.437Z,3.54
2024-03-05T06:46:31.443Z,3.57
2024-03-05T06:51:43.370Z,3.60
2024-03-05T06:56:46.547Z,3.61
2024-03-05T07:01:50.141Z,3.62
2024-03-05T07:06:56.353Z,3.63
2024-03-05T07:11:59.470Z,3.62
2024-03-05T07:17:03.620Z,3.62
2024-03-05T07:22:08.436Z,3.62
2024-03-05T07:27:13.480Z,3.62
2024-03-05T07:32:17.657Z,3.65
2024-03-05T07:37:22.349Z,3.69
2024-03-05T07:42:25.459Z,3.71
2024-03-05T07:47:28.667Z,3.73
2024-03-05T07:52:32.010Z,3.73
2024-03-05T07:57:36.208Z,3.75
2024-03-05T08:02:41.412Z,3.77
2024-03-05T08:07:45.215Z,3.77
2024-03-05T08:12:49.210Z,3.79
2024-03-05T08:17:53.070Z,3.81
2024-03-05T08:22:57.189Z,3.84
2024-03-05T08:28:00.797Z,3.90
2024-03-05T08:33:05.176Z,3.96
2024-03-05T08:38:10.756Z,4.03
2024-03-05T08:43:15.831Z,4.09
2024-03-05T08:48:19.263Z,4.13
2024-03-05T08:53:22.831Z,4.16
2024-03-05T08:58:26.105Z,4.21
2024-03-05T09:03:29.688Z,4.26
2024-03-05T09:08:33.508Z,4.30
2024-03-05T09:13:36.762Z,4.34
2024-03-05T09:18:40.768Z,4.37
2024-03-05T09:23:44.065Z,4.44
2024-03-05T09:28:47.313Z,4.52
2024-03-05T09:33:50.468Z,4.60
2024-03-05T09:38:53.889Z,4.67
2024-03-05T09:43:58.141Z,4.70
2024-03-05T09:49:11.021Z,4.73
2024-03-05T09:54:18.762Z,4.74
2024-03-05T09:59:22.294Z,4.72
2024-03-05T10:04:28.287Z,4.67
2024-03-05T10:09:31.874Z,4.70
2024-03-05T10:14:36.311Z,4.76
2024-03-05T10:19:44.281Z,4.75
2024-03-05T10:24:47.434Z,4.75
2024-03-05T10:29:50.546Z,4.79
2024-03-05T10:34:53.723Z,4.83
2024-03-05T10:39:57.153Z,4.91
2024-03-05T10:45:00.567Z,4.91
2024-03-05T10:50:04.080Z,4.90
2024-03-05T10:55:12.575Z,4.87
2024-03-05T11:00:16.490Z,4.84
2024-03-05T11:05:20.180Z,4.79
2024-03-05T11:10:26.045Z,4.75
2024-03-05T11:15:29.646Z,4.69
2024-03-05T11:20:42.379Z,4.62
2024-03-05T11:25:50.387Z,4.54
2024-03-05T11:31:28.989Z,4.50
2024-03-05T11:36:35.690Z,4.52
2024-03-05T11:41:40.082Z,4.57
2024-03-05T11:46:53.699Z,4.69
2024-03-05T11:51:58.564Z,4.84
2024-03-05T11:57:02.357Z,4.86
2024-03-05T12:02:16.860Z,4.86
2024-03-05T12:07:20.395Z,4.82
2024-03-05T12:12:24.504Z,4.79
2024-03-05T12:17:27.652Z,4.78
2024-03-05T12:22:31.254Z,4.80
2024-03-05T12:27:35.760Z,4.88
2024-03-05T12:32:39.580Z,4.91
2024-03-05T12:37:42.926Z,4.89
2024-03-05T12:42:53.378Z,4.89
2024-03-05T12:47:59.286Z,4.97
2024-03-05T12:53:04.648Z,5.08
2024-03-05T12:58:10.288Z,5.13
2024-03-05T13:03:14.701Z,5.13
2024-03-05T13:08:18.056Z,5.14
2024-03-05T13:13:21.517Z,5.13
2024-03-05T13:18:24.625Z,5.20
2024-03-05T13:23:27.838Z,5.24
2024-03-05T13:28:31.164Z,5.24
2024-03-05T13:33:34.357Z,5.23
2024-03-05T13:38:37.973Z,5.28
2024-03-05T13:43:41.018Z,5.31
2024-03-05T13:48:44.429Z,5.33
2024-03-05T13:53:49.659Z,5.36
2024-03-05T13:58:52.982Z,5.41
2024-03-05T14:03:57.652Z,5.46
2024-03-05T14:09:01.829Z,5.49
2024-03-05T14:14:05.544Z,5.50
2024-03-05T14:19:09.170Z,5.52
2024-03-05T14:24:14.246Z,5.55
2024-03-05T14:29:17.427Z,5.57
2024-03-05T14:34:22.875Z,5.58
2024-03-05T14:39:26.300Z,5.54
2024-03-05T14:44:29.505Z,5.51
2024-03-05T14:49:32.882Z,5.53
2024-03-05T14:54:36.396Z,5.51
2024-03-05T14:59:39.658Z,5.46
2024-03-05T15:04:42.904Z,5.42
2024-03-05T15:09:46.985Z,5.38
2024-03-05T15:14:50.597Z,5.38
2024-03-05T15:19:53.715Z,5.35
2024-03-05T15:24:57.121Z,5.33
2024-03-05T15:30:00.276Z,5.33
2024-03-05T15:35:04.788Z,5.31
2024-03-05T15:40:16.892Z,5.31
2024-03-05T15:45:20.917Z,5.30
2024-03-05T15:50:25.012Z,5.30
2024-03-05T15:55:31.691Z,5.29
2024-03-05T16:00:39.615Z,5.29
2024-03-05T16:05:56.187Z,5.29
2024-03-05T16:11:09.008Z,5.29
2024-03-05T16:16:14.192Z,5.29
2024-03-05T16:21:17.924Z,5.29
2024-03-05T16:26:21.124Z,5.30
2024-03-05T16:31:24.532Z,5.32
2024-03-05T16:36:28.878Z,5.33
2024-03-05T16:41:34.501Z,5.34
2024-03-05T16:46:37.842Z,5.36
2024-03-05T16:51:43.473Z,5.38
2024-03-05T16:56:46.796Z,5.40
2024-03-05T17:01:50.778Z,5.42
2024-03-05T17:06:56.805Z,5.44
2024-03-05T17:12:01.884Z,5.46
2024-03-05T17:17:06.102Z,5.48
2024-03-05T17:22:10.436Z,5.48
2024-03-05T17:27:13.907Z,5.48
2024-03-05T17:32:17.138Z,5.49
2024-03-05T17:37:20.599Z,5.49
2024-03-05T17:42:24.280Z,5.49
2024-03-05T17:47:27.779Z,5.48
2024-03-05T17:52:31.100Z,5.48
2024-03-05T17:57:38.381Z,5.48
2024-03-05T18:02:43.710Z,5.48
2024-03-05T18:07:47.552Z,5.48
2024-03-05T18:12:52.199Z,5.48
2024-03-05T18:17:56.261Z,5.48
2024-03-05T18:23:01.729Z,5.47
2024-03-05T18:28:06.080Z,5.47
2024-03-05T18:33:13.053Z,5.47
2024-03-05T18:38:24.846Z,5.47
2024-03-05T18:43:33.823Z,5.48
2024-03-05T18:48:37.259Z,5.48
2024-03-05T18:53:46.588Z,5.50
2024-03-05T18:58:55.865Z,5.51
2024-03-05T19:04:05.323Z,5.52
2024-03-05T19:09:10.428Z,5.53
2024-03-05T19:14:14.076Z,5.55
2024-03-05T19:19:17.549Z,5.56
2024-03-05T19:24:21.054Z,5.57
2024-03-05T19:29:24.741Z,5.58
2024-03-05T19:34:28.535Z,5.58
2024-03-05T19:39:32.222Z,5.58
2024-03-05T19:44:38.917Z,5.58
2024-03-05T19:49:44.899Z,5.59
2024-03-05T19:55:06.018Z,5.59
2024-03-05T20:00:20.595Z,5.61
2024-03-05T20:05:27.883Z,5.62
2024-03-05T20:10:31.743Z,5.62
2024-03-05T20:15:35.593Z,5.63
2024-03-05T20:20:39.856Z,5.64
2024-03-05T20:25:43.314Z,5.65
2024-03-05T20:30:47.828Z,5.65
2024-03-05T20:35:51.965Z,5.66
2024-03-05T20:40:56.219Z,5.66
2024-03-05T20:45:59.407Z,5.67
2024-03-05T20:51:04.862Z,5.67
2024-03-05T20:56:10.001Z,5.66
2024-03-05T21:01:13.766Z,5.66
2024-03-05T21:06:17.198Z,5.66
2024-03-05T21:11:21.395Z,5.65
2024-03-05T21:16:25.209Z,5.64
2024-03-05T21:21:29.643Z,5.64
2024-03-05T21:26:53.247Z,5.63
2024-03-05T21:31:57.585Z,5.61
2024-03-05T21:37:01.516Z,5.60
2024-03-05T21:42:05.507Z,5.59
2024-03-05T21:47:09.396Z,5.58
2024-03-05T21:52:13.763Z,5.57
2024-03-05T21:57:16.744Z,5.57
2024-03-05T22:02:24.538Z,5.56
2024-03-05T22:07:30.696Z,5.57
2024-03-05T22:12:38.621Z,5.56
2024-03-05T22:17:43.279Z,5.57
2024-03-05T22:22:48.028Z,5.58
2024-03-05T22:27:52.331Z,5.58
2024-03-05T22:32:56.973Z,5.59
2024-03-05T22:38:00.310Z,5.58
2024-03-05T22:43:08.244Z,5.58
2024-03-05T22:48:11.887Z,5.58
2024-03-05T22:53:15.891Z,5.58
2024-03-05T22:58:19.647Z,5.58
2024-03-05T23:03:23.609Z,5.59
2024-03-05T23:08:26.885Z,5.59
2024-03-05T23:13:30.728Z,5.61
2024-03-05T23:18:34.655Z,5.62
2024-03-05T23:23:39.575Z,5.62
2024-03-05T23:28:42.835Z,5.63
2024-03-05T23:33:46.401Z,5.64
2024-03-05T23:38:49.818Z,5.65
2024-03-05T23:43:52.971Z,5.66
2024-03-05T23:48:56.745Z,5.66
2024-03-05T23:53:59.859Z,5.67
2024-03-05T23:59:03.196Z,5.67
